createdAt,value
2018-06-21T00:00:08.513Z,22.70
2018-06-21T00:02:38.147Z,22.60
2018-06-21T00:05:07.712Z,22.60
2018-06-21T00:07:38.162Z,22.60
2018-06-21T00:10:08.043Z,22.60
2018-06-21T00:12:37.679Z,22.60
2018-06-21T00:15:07.420Z,22.60
2018-06-21T00:17:37.071Z,22.50
2018-06-21T00:20:06.673Z,22.50
2018-06-21T00:22:36.444Z,22.50
2018-06-21T00:25:06.218Z,22.40
2018-06-21T00:27:35.836Z,22.30
2018-06-21T00:30:05.543Z,22.30
2018-06-21T00:32:35.195Z,22.30
2018-06-21T00:35:07.425Z,22.30
2018-06-21T00:37:37.041Z,22.30
2018-06-21T00:40:06.719Z,22.20
2018-06-21T00:42:36.370Z,22.20
2018-06-21T00:45:06.430Z,22.20
2018-06-21T00:47:35.976Z,22.10
2018-06-21T00:50:05.689Z,22.10
2018-06-21T00:52:35.321Z,22.10
2018-06-21T00:55:05.080Z,22.10
2018-06-21T00:57:34.888Z,22.00
2018-06-21T01:00:06.194Z,22.00
2018-06-21T01:02:36.922Z,22.00
2018-06-21T01:05:06.548Z,21.90
2018-06-21T01:07:36.206Z,21.90
2018-06-21T01:10:05.730Z,21.90
2018-06-21T01:12:35.426Z,21.90
2018-06-21T01:17:34.119Z,21.90
2018-06-21T01:20:04.041Z,21.90
2018-06-21T01:22:33.637Z,21.90
2018-06-21T01:25:03.248Z,21.90
2018-06-21T01:27:32.854Z,21.90
2018-06-21T01:30:03.710Z,21.80
2018-06-21T01:32:33.314Z,21.60
2018-06-21T01:35:03.039Z,21.80
2018-06-21T01:37:32.710Z,21.70
2018-06-21T01:40:02.355Z,21.60
2018-06-21T01:42:31.817Z,21.60
2018-06-21T01:45:03.635Z,21.60
2018-06-21T01:47:33.355Z,21.60
2018-06-21T01:50:03.486Z,21.60
2018-06-21T01:52:33.174Z,21.50
2018-06-21T01:55:05.142Z,21.60
2018-06-21T01:57:34.867Z,21.60
2018-06-21T02:00:06.231Z,21.60
2018-06-21T02:02:35.879Z,21.60
2018-06-21T02:05:06.847Z,21.50
2018-06-21T02:07:36.943Z,21.40
2018-06-21T02:10:06.691Z,21.30
2018-06-21T02:12:36.358Z,21.40
2018-06-21T02:15:06.108Z,21.30
2018-06-21T02:17:35.679Z,21.30
2018-06-21T02:20:05.640Z,21.20
2018-06-21T02:22:35.354Z,21.10
2018-06-21T02:25:05.176Z,21.10
2018-06-21T02:27:35.749Z,21.10
2018-06-21T02:30:05.662Z,21.00
2018-06-21T02:32:35.347Z,21.00
2018-06-21T02:35:06.557Z,21.00
2018-06-21T02:37:36.314Z,20.90
2018-06-21T02:40:06.961Z,20.90
2018-06-21T02:42:36.717Z,20.90
2018-06-21T02:45:07.517Z,20.90
2018-06-21T02:47:37.161Z,21.00
2018-06-21T02:50:07.014Z,21.00
2018-06-21T02:52:36.893Z,20.90
2018-06-21T02:55:06.849Z,21.00
2018-06-21T02:57:36.491Z,21.00
2018-06-21T03:00:06.119Z,20.80
2018-06-21T03:02:35.783Z,20.90
2018-06-21T03:05:06.409Z,20.80
2018-06-21T03:07:36.061Z,20.80
2018-06-21T03:10:05.708Z,20.80
2018-06-21T03:12:35.388Z,20.70
2018-06-21T03:15:05.769Z,20.80
2018-06-21T03:17:35.405Z,20.80
2018-06-21T03:20:05.202Z,20.80
2018-06-21T03:22:35.024Z,20.80
2018-06-21T03:25:04.850Z,20.80
2018-06-21T03:27:34.513Z,20.80
2018-06-21T03:30:04.963Z,20.70
2018-06-21T03:32:34.486Z,20.70
2018-06-21T03:35:04.087Z,20.60
2018-06-21T03:37:33.822Z,20.60
2018-06-21T03:40:04.289Z,20.60
2018-06-21T03:42:33.994Z,20.60
2018-06-21T03:45:03.825Z,20.60
2018-06-21T03:47:33.523Z,20.60
2018-06-21T03:50:03.199Z,20.60
2018-06-21T03:52:33.844Z,20.60
2018-06-21T03:55:04.536Z,20.60
2018-06-21T04:15:31.881Z,20.80
2018-06-21T04:18:03.304Z,20.90
2018-06-21T04:20:32.996Z,20.90
2018-06-21T04:23:05.014Z,21.00
2018-06-21T04:25:34.625Z,20.90
2018-06-21T04:28:05.284Z,21.10
2018-06-21T04:30:35.031Z,21.20
2018-06-21T04:33:04.769Z,21.30
2018-06-21T04:35:34.398Z,21.30
2018-06-21T04:38:05.257Z,21.40
2018-06-21T04:40:34.865Z,21.50
2018-06-21T04:43:04.632Z,21.50
2018-06-21T04:45:34.368Z,21.70
2018-06-21T04:48:05.201Z,21.80
2018-06-21T04:50:36.117Z,22.00
2018-06-21T04:53:05.968Z,22.20
2018-06-21T04:55:35.753Z,22.40
2018-06-21T04:58:05.515Z,22.60
2018-06-21T05:00:35.153Z,22.80
2018-06-21T05:03:04.873Z,22.90
2018-06-21T05:05:35.285Z,23.00
2018-06-21T05:08:05.120Z,23.10
2018-06-21T05:10:34.792Z,23.10
2018-06-21T05:13:04.642Z,23.10
2018-06-21T05:15:34.418Z,23.20
2018-06-21T05:18:04.174Z,23.30
2018-06-21T05:20:33.859Z,23.40
2018-06-21T05:23:04.820Z,23.60
2018-06-21T05:25:34.627Z,23.80
2018-06-21T05:28:05.978Z,23.90
2018-06-21T05:30:35.706Z,24.00
2018-06-21T05:33:05.478Z,24.10
2018-06-21T05:35:35.823Z,24.10
2018-06-21T05:38:06.055Z,24.10
2018-06-21T05:40:37.009Z,24.20
2018-06-21T05:43:09.393Z,24.30
2018-06-21T05:45:43.332Z,24.30
2018-06-21T05:48:13.153Z,24.30
2018-06-21T05:50:42.980Z,24.40
2018-06-21T05:53:12.714Z,24.50
2018-06-21T05:55:42.499Z,24.60
2018-06-21T05:58:12.191Z,24.70
2018-06-21T06:00:42.018Z,24.80
2018-06-21T06:03:12.670Z,24.90
2018-06-21T06:05:48.655Z,25.00
2018-06-21T06:08:18.637Z,25.10
2018-06-21T06:10:48.227Z,25.20
2018-06-21T06:13:18.722Z,25.40
2018-06-21T06:15:48.461Z,25.50
2018-06-21T06:18:18.332Z,25.70
2018-06-21T06:20:48.058Z,25.80
2018-06-21T06:23:18.620Z,25.90
2018-06-21T06:25:49.162Z,26.10
2018-06-21T06:28:18.922Z,26.20
2018-06-21T06:30:48.741Z,26.30
2018-06-21T06:33:18.560Z,26.40
2018-06-21T06:35:48.415Z,26.60
2018-06-21T06:38:18.166Z,26.70
2018-06-21T06:40:47.889Z,26.90
2018-06-21T06:43:17.844Z,27.10
2018-06-21T06:45:48.318Z,27.30
2018-06-21T06:48:18.174Z,27.60
2018-06-21T06:50:48.141Z,27.80
2018-06-21T06:53:17.917Z,28.00
2018-06-21T06:55:48.799Z,28.10
2018-06-21T06:58:18.683Z,28.20
2018-06-21T07:00:49.342Z,28.20
2018-06-21T07:03:19.376Z,28.40
2018-06-21T07:05:49.171Z,28.40
2018-06-21T07:08:20.591Z,28.60
2018-06-21T07:10:50.388Z,28.70
2018-06-21T07:13:20.314Z,28.60
2018-06-21T07:15:49.937Z,28.60
2018-06-21T07:18:19.697Z,28.80
2018-06-21T07:20:50.485Z,29.10
2018-06-21T07:23:21.676Z,29.30
2018-06-21T07:25:52.065Z,29.60
2018-06-21T07:28:21.969Z,29.60
2018-06-21T07:30:51.915Z,29.50
2018-06-21T07:33:21.676Z,29.50
2018-06-21T07:35:51.533Z,29.50
2018-06-21T07:38:22.067Z,29.50
2018-06-21T07:40:52.375Z,29.50
2018-06-21T07:43:22.401Z,29.50
2018-06-21T07:45:53.039Z,29.60
2018-06-21T07:48:23.028Z,29.80
2018-06-21T07:50:53.025Z,30.10
2018-06-21T07:53:22.748Z,30.30
2018-06-21T07:55:52.539Z,30.30
2018-06-21T07:58:22.507Z,30.40
2018-06-21T08:00:52.111Z,30.70
2018-06-21T08:03:22.159Z,31.20
2018-06-21T08:05:53.019Z,31.90
2018-06-21T08:08:22.925Z,32.20
2018-06-21T08:10:52.738Z,32.40
2018-06-21T08:13:22.467Z,33.00
2018-06-21T08:15:52.278Z,33.40
2018-06-21T08:18:22.277Z,33.50
2018-06-21T08:20:52.096Z,33.40
2018-06-21T08:25:52.218Z,33.60
2018-06-21T08:28:21.846Z,34.00
2018-06-21T08:30:56.094Z,34.40
2018-06-21T08:33:26.231Z,34.80
2018-06-21T08:35:55.970Z,35.50
2018-06-21T08:38:25.630Z,35.70
2018-06-21T08:40:56.313Z,35.40
2018-06-21T08:43:33.171Z,35.00
2018-06-21T08:46:05.361Z,34.60
2018-06-21T08:48:35.190Z,34.30
2018-06-21T08:51:05.669Z,33.90
2018-06-21T08:53:35.354Z,33.60
2018-06-21T08:56:05.229Z,33.30
2018-06-21T08:58:34.850Z,33.30
2018-06-21T09:01:04.497Z,33.40
2018-06-21T09:03:34.286Z,33.60
2018-06-21T09:06:04.219Z,33.80
2018-06-21T09:08:33.999Z,33.70
2018-06-21T09:11:03.745Z,33.70
2018-06-21T09:13:36.057Z,34.40
2018-06-21T09:16:07.675Z,35.20
2018-06-21T09:18:37.254Z,35.30
2018-06-21T09:21:07.193Z,35.10
2018-06-21T09:23:36.812Z,34.70
2018-06-21T09:26:06.479Z,34.40
2018-06-21T09:28:36.387Z,34.20
2018-06-21T09:31:06.537Z,34.10
2018-06-21T09:33:36.147Z,33.90
2018-06-21T09:36:06.506Z,33.80
2018-06-21T09:38:41.890Z,34.20
2018-06-21T09:41:17.037Z,34.70
2018-06-21T09:44:03.825Z,35.50
2018-06-21T09:46:33.874Z,36.20
2018-06-21T09:48:57.710Z,36.40
2018-06-21T09:51:27.498Z,36.60
2018-06-21T09:53:57.246Z,37.10
2018-06-21T09:56:27.024Z,37.10
2018-06-21T09:58:56.920Z,36.70
2018-06-21T10:01:26.677Z,36.10
2018-06-21T10:03:56.991Z,35.80
2018-06-21T10:06:28.170Z,36.40
2018-06-21T10:08:58.893Z,36.50
2018-06-21T10:11:28.608Z,36.30
2018-06-21T10:13:58.311Z,36.80
2018-06-21T10:16:28.346Z,37.40
2018-06-21T10:18:58.813Z,38.30
2018-06-21T10:21:28.601Z,38.80
2018-06-21T10:23:58.430Z,39.40
2018-06-21T10:26:28.117Z,40.10
2018-06-21T10:28:57.995Z,40.20
2018-06-21T10:31:27.783Z,40.30
2018-06-21T10:33:57.316Z,40.00
2018-06-21T10:36:26.958Z,39.30
2018-06-21T10:38:56.735Z,38.30
2018-06-21T10:41:26.496Z,38.20
2018-06-21T10:43:56.185Z,38.30
2018-06-21T10:46:26.180Z,38.60
2018-06-21T10:48:56.205Z,39.00
2018-06-21T10:51:26.975Z,39.50
2018-06-21T10:53:57.660Z,39.70
2018-06-21T10:56:27.789Z,39.70
2018-06-21T10:58:57.541Z,39.40
2018-06-21T11:01:27.289Z,39.10
2018-06-21T11:03:57.127Z,39.10
2018-06-21T11:06:26.868Z,39.20
2018-06-21T11:08:56.650Z,39.10
2018-06-21T11:11:26.350Z,39.30
2018-06-21T11:13:56.159Z,39.20
2018-06-21T11:16:25.922Z,38.80
2018-06-21T11:18:55.626Z,38.20
2018-06-21T11:21:25.937Z,37.70
2018-06-21T11:23:55.711Z,37.20
2018-06-21T11:26:25.854Z,36.80
2018-06-21T11:29:05.462Z,36.30
2018-06-21T11:34:06.056Z,35.30
2018-06-21T11:36:35.776Z,34.90
2018-06-21T11:39:09.269Z,34.60
2018-06-21T11:41:39.322Z,34.10
2018-06-21T11:44:09.055Z,34.00
2018-06-21T11:46:38.859Z,33.90
2018-06-21T11:49:08.810Z,33.80
2018-06-21T11:51:39.119Z,33.80
2018-06-21T11:54:09.372Z,33.70
2018-06-21T11:56:39.047Z,33.70
2018-06-21T11:59:08.985Z,33.40
2018-06-21T12:01:38.712Z,33.50
2018-06-21T12:04:10.627Z,33.30
2018-06-21T12:06:40.575Z,33.10
2018-06-21T12:09:11.688Z,32.70
2018-06-21T12:11:41.333Z,32.30
2018-06-21T12:14:11.235Z,32.00
2018-06-21T12:16:41.490Z,31.60
2018-06-21T12:19:11.110Z,31.30
2018-06-21T12:21:40.924Z,31.10
2018-06-21T12:24:11.465Z,31.00
2018-06-21T12:26:42.022Z,30.90
2018-06-21T12:29:16.084Z,30.80
2018-06-21T12:31:45.757Z,30.60
2018-06-21T12:34:15.528Z,30.60
2018-06-21T12:36:45.242Z,30.60
2018-06-21T12:39:15.494Z,30.40
2018-06-21T12:41:45.385Z,30.30
2018-06-21T12:44:15.237Z,30.20
2018-06-21T12:46:44.912Z,30.00
2018-06-21T12:49:14.630Z,30.00
2018-06-21T12:51:44.244Z,30.10
2018-06-21T12:54:13.858Z,30.20
2018-06-21T12:56:43.666Z,30.20
2018-06-21T12:59:13.381Z,30.30
2018-06-21T13:01:43.282Z,30.40
2018-06-21T13:04:13.089Z,30.50
2018-06-21T13:06:43.838Z,30.50
2018-06-21T13:09:24.600Z,30.50
2018-06-21T13:13:31.222Z,30.60
2018-06-21T13:18:36.343Z,30.60
2018-06-21T13:21:06.561Z,30.50
2018-06-21T13:23:36.247Z,30.50
2018-06-21T13:26:06.199Z,30.40
2018-06-21T13:28:38.201Z,30.50
2018-06-21T13:31:08.102Z,30.50
2018-06-21T13:33:37.981Z,30.60
2018-06-21T13:36:08.007Z,30.70
2018-06-21T13:38:45.869Z,30.70
2018-06-21T13:41:15.832Z,30.70
2018-06-21T13:43:45.634Z,30.40
2018-06-21T13:46:15.721Z,30.00
2018-06-21T13:48:45.575Z,29.70
2018-06-21T13:51:15.374Z,29.30
2018-06-21T13:53:45.116Z,29.00
2018-06-21T13:56:14.995Z,28.50
2018-06-21T13:58:45.139Z,28.20
2018-06-21T14:01:16.776Z,28.00
2018-06-21T14:03:47.175Z,27.70
2018-06-21T14:06:17.100Z,27.40
2018-06-21T14:08:46.808Z,27.20
2018-06-21T14:11:16.592Z,27.00
2018-06-21T14:13:47.340Z,27.00
2018-06-21T14:16:17.066Z,27.00
2018-06-21T14:18:47.553Z,27.00
2018-06-21T14:21:17.382Z,27.10
2018-06-21T14:23:53.873Z,27.20
2018-06-21T14:26:23.806Z,27.40
2018-06-21T14:28:53.350Z,27.50
2018-06-21T14:31:24.010Z,27.60
2018-06-21T14:33:54.103Z,27.90
2018-06-21T14:36:24.076Z,28.00
2018-06-21T14:38:54.069Z,28.10
2018-06-21T14:41:24.016Z,28.30
2018-06-21T14:43:53.763Z,28.20
2018-06-21T14:46:23.761Z,28.10
2018-06-21T14:48:53.503Z,28.10
2018-06-21T14:51:23.253Z,28.10
2018-06-21T14:53:52.962Z,28.00
2018-06-21T14:56:22.679Z,27.90
2018-06-21T14:58:52.439Z,27.90
2018-06-21T15:01:22.100Z,27.90
2018-06-21T15:03:51.948Z,28.00
2018-06-21T15:06:21.831Z,27.80
2018-06-21T15:08:51.790Z,27.70
2018-06-21T15:11:21.422Z,27.60
2018-06-21T15:13:52.059Z,27.60
2018-06-21T15:16:23.029Z,27.50
2018-06-21T15:18:52.842Z,27.40
2018-06-21T15:21:22.520Z,27.40
2018-06-21T15:23:52.153Z,27.50
2018-06-21T15:28:57.194Z,27.40
2018-06-21T15:31:26.937Z,27.40
2018-06-21T15:33:57.562Z,27.40
2018-06-21T15:36:27.269Z,27.40
2018-06-21T15:39:03.461Z,27.40
2018-06-21T15:41:33.313Z,27.40
2018-06-21T15:44:02.939Z,27.30
2018-06-21T15:46:32.701Z,27.20
2018-06-21T15:49:02.664Z,27.20
2018-06-21T15:51:47.788Z,27.10
2018-06-21T15:54:17.660Z,27.10
2018-06-21T15:56:47.366Z,27.00
2018-06-21T15:59:18.091Z,27.00
2018-06-21T16:01:47.806Z,26.90
2018-06-21T16:04:17.555Z,26.80
2018-06-21T16:06:47.214Z,26.70
2018-06-21T16:09:17.012Z,26.60
2018-06-21T16:11:46.676Z,26.50
2018-06-21T16:14:16.503Z,26.40
2018-06-21T16:16:46.171Z,26.40
2018-06-21T16:19:15.921Z,26.30
2018-06-21T16:21:45.738Z,26.40
2018-06-21T16:24:15.382Z,26.30
2018-06-21T16:26:45.020Z,26.30
2018-06-21T16:29:14.733Z,26.20
2018-06-21T16:31:44.334Z,26.30
2018-06-21T16:34:14.022Z,26.30
2018-06-21T16:36:43.787Z,26.30
2018-06-21T16:39:13.578Z,26.40
2018-06-21T16:41:44.911Z,26.50
2018-06-21T16:44:14.621Z,26.50
2018-06-21T16:46:44.385Z,26.50
2018-06-21T16:49:13.960Z,26.40
2018-06-21T16:51:44.646Z,26.40
2018-06-21T16:54:14.323Z,26.40
2018-06-21T16:56:45.292Z,26.50
2018-06-21T16:59:15.132Z,26.40
2018-06-21T17:01:44.862Z,26.40
2018-06-21T17:04:14.863Z,26.30
2018-06-21T17:06:45.691Z,26.30
2018-06-21T17:09:15.509Z,26.40
2018-06-21T17:11:45.341Z,26.30
2018-06-21T17:14:15.131Z,26.30
2018-06-21T17:16:46.805Z,26.40
2018-06-21T17:19:16.778Z,26.40
2018-06-21T17:21:46.506Z,26.40
2018-06-21T17:24:16.279Z,26.30
2018-06-21T17:26:46.117Z,26.20
2018-06-21T17:29:15.929Z,26.30
2018-06-21T17:31:45.790Z,26.20
2018-06-21T17:34:15.642Z,26.10
2018-06-21T17:36:45.458Z,26.20
2018-06-21T17:39:15.391Z,26.20
2018-06-21T17:41:45.060Z,26.20
2018-06-21T17:44:14.798Z,26.10
2018-06-21T17:46:45.202Z,26.10
2018-06-21T17:49:15.049Z,26.00
2018-06-21T17:51:44.764Z,26.00
2018-06-21T17:54:14.595Z,25.90
2018-06-21T17:56:44.689Z,26.00
2018-06-21T17:59:14.539Z,26.00
2018-06-21T18:01:45.715Z,25.90
2018-06-21T18:04:15.438Z,25.80
2018-06-21T18:06:45.264Z,25.80
2018-06-21T18:09:14.927Z,25.80
2018-06-21T18:11:44.888Z,25.80
2018-06-21T18:14:14.805Z,25.80
2018-06-21T18:16:44.470Z,25.80
2018-06-21T18:19:14.181Z,25.70
2018-06-21T18:21:44.155Z,25.60
2018-06-21T18:24:13.898Z,25.40
2018-06-21T18:26:43.664Z,25.20
2018-06-21T18:29:13.536Z,25.00
2018-06-21T18:31:43.467Z,24.80
2018-06-21T18:34:16.129Z,24.70
2018-06-21T18:36:46.263Z,24.50
2018-06-21T18:39:16.076Z,24.40
2018-06-21T18:41:46.057Z,24.30
2018-06-21T18:44:15.843Z,24.20
2018-06-21T18:46:45.570Z,24.10
2018-06-21T18:49:15.725Z,24.10
2018-06-21T18:51:45.397Z,24.00
2018-06-21T18:54:15.104Z,24.00
2018-06-21T18:56:45.013Z,23.90
2018-06-21T18:59:14.736Z,23.70
2018-06-21T19:01:44.546Z,23.70
2018-06-21T19:04:14.251Z,23.60
2018-06-21T19:06:51.418Z,23.60
2018-06-21T19:09:26.462Z,23.50
2018-06-21T19:12:00.468Z,23.50
2018-06-21T19:14:30.802Z,23.40
2018-06-21T19:17:01.436Z,23.40
2018-06-21T19:19:31.141Z,23.30
2018-06-21T19:22:00.844Z,23.20
2018-06-21T19:24:32.526Z,23.10
2018-06-21T19:27:02.206Z,23.00
2018-06-21T19:29:31.940Z,23.00
2018-06-21T19:32:01.756Z,22.90
2018-06-21T19:34:31.547Z,22.80
2018-06-21T19:37:01.614Z,22.70
2018-06-21T19:39:31.279Z,22.70
2018-06-21T19:42:00.890Z,22.70
2018-06-21T19:44:31.375Z,22.60
2018-06-21T19:47:03.161Z,22.50
2018-06-21T19:49:33.649Z,22.50
2018-06-21T19:52:04.961Z,22.50
2018-06-21T19:54:34.869Z,22.50
2018-06-21T19:57:04.590Z,22.30
2018-06-21T19:59:34.330Z,22.20
2018-06-21T20:02:04.074Z,22.20
2018-06-21T20:04:33.766Z,22.10
2018-06-21T20:07:05.044Z,22.00
2018-06-21T20:09:34.671Z,21.90
2018-06-21T20:12:06.323Z,22.00
2018-06-21T20:14:36.012Z,22.00
2018-06-21T20:17:08.267Z,21.90
2018-06-21T20:19:43.139Z,21.80
2018-06-21T20:22:12.850Z,21.80
2018-06-21T20:24:42.643Z,21.80
2018-06-21T20:27:12.361Z,21.70
2018-06-21T20:29:41.987Z,21.70
2018-06-21T20:32:11.914Z,21.70
2018-06-21T20:34:41.497Z,21.60
2018-06-21T20:37:17.262Z,21.50
2018-06-21T20:39:47.917Z,21.50
2018-06-21T20:42:17.683Z,21.50
2018-06-21T20:44:47.447Z,21.50
2018-06-21T20:47:17.086Z,21.50
2018-06-21T20:49:46.819Z,21.50
2018-06-21T20:52:21.576Z,21.40
2018-06-21T20:54:51.339Z,21.40
2018-06-21T20:57:21.419Z,21.20
2018-06-21T20:59:51.060Z,21.20
2018-06-21T21:02:20.824Z,21.40
2018-06-21T21:05:08.895Z,21.40
2018-06-21T21:07:38.953Z,21.30
2018-06-21T21:10:09.938Z,21.30
2018-06-21T21:12:40.061Z,21.20
2018-06-21T21:15:10.737Z,21.20
2018-06-21T21:17:40.371Z,21.00
2018-06-21T21:20:11.848Z,21.00
2018-06-21T21:22:42.222Z,21.00
2018-06-21T21:25:11.998Z,21.00
2018-06-21T21:27:41.877Z,21.00
2018-06-21T21:30:11.477Z,20.80
2018-06-21T21:32:41.191Z,20.80
2018-06-21T21:35:10.828Z,20.70
2018-06-21T21:37:40.394Z,20.60
2018-06-21T21:42:39.443Z,20.50
2018-06-21T21:45:09.034Z,20.50
2018-06-21T21:47:38.762Z,20.40
2018-06-21T21:50:08.425Z,20.30
2018-06-21T21:52:38.129Z,20.30
2018-06-21T21:55:08.102Z,20.20
2018-06-21T21:57:37.762Z,20.10
2018-06-21T22:00:17.027Z,20.00
2018-06-21T22:02:46.634Z,20.00
2018-06-21T22:05:16.145Z,20.00
2018-06-21T22:07:46.014Z,20.00
2018-06-21T22:10:15.623Z,19.90
2018-06-21T22:12:45.125Z,19.90
2018-06-21T22:15:14.883Z,20.00
2018-06-21T22:17:44.562Z,20.00
2018-06-21T22:20:14.270Z,20.00
2018-06-21T22:22:44.059Z,20.00
2018-06-21T22:27:43.776Z,19.90
2018-06-21T22:30:13.270Z,19.90
2018-06-21T22:35:12.045Z,19.90
2018-06-21T22:37:41.697Z,19.90
2018-06-21T22:40:11.451Z,19.90
2018-06-21T22:42:41.122Z,19.90
2018-06-21T22:45:10.753Z,19.80
2018-06-21T22:47:40.278Z,19.70
2018-06-21T22:50:09.964Z,19.80
2018-06-21T22:52:39.919Z,19.80
2018-06-21T22:55:09.532Z,19.80
2018-06-21T22:57:39.127Z,19.70
2018-06-21T23:00:08.655Z,19.60
2018-06-21T23:20:36.580Z,19.30
2018-06-21T23:23:07.262Z,19.20
2018-06-21T23:25:37.172Z,19.20
2018-06-21T23:28:07.083Z,19.20
2018-06-21T23:30:36.674Z,19.10
2018-06-21T23:33:06.293Z,19.00
2018-06-21T23:35:35.784Z,18.90
2018-06-21T23:38:05.444Z,18.90
2018-06-21T23:40:34.850Z,18.80
2018-06-21T23:45:36.871Z,18.70
2018-06-21T23:48:06.472Z,18.70
2018-06-21T23:53:05.263Z,18.60
2018-06-21T23:55:34.869Z,18.60
2018-06-21T23:58:04.493Z,18.60
